Time;durP1;ratioP1;P1;durP2;ratioP2;P2;SDS_P1;SDS_P2;PMS_P1;PMS_P2;Temp;Humidity;BMP_temperature;BMP_pressure;BME280_temperature;BME280_humidity;BME280_pressure;Samples;Min_cycle;Max_cycle;Signal;HPM_P1;HPM_P2
2021/10/24 00:01:02;;;;;;;;;45.75;35.25;;;;;9.88;72.09;102114.59;5061960;28;45314;-58
2021/10/24 00:03:28;;;;;;;;;37.75;30.25;;;;;9.87;72.34;102110.28;5062173;28;45409;-58
2021/10/24 00:05:54;;;;;;;;;38.00;32.00;;;;;9.85;72.62;102109.44;5062059;28;45421;-58
2021/10/24 00:08:20;;;;;;;;;45.00;34.50;;;;;9.85;72.15;102113.75;5061652;28;46068;-59
2021/10/24 00:10:46;;;;;;;;;35.75;32.25;;;;;9.84;71.86;102104.25;5060704;28;45288;-59
2021/10/24 00:13:12;;;;;;;;;42.50;38.50;;;;;9.83;72.03;102097.31;5059603;28;45411;-59
2021/10/24 00:15:37;;;;;;;;;40.00;30.50;;;;;9.79;72.00;102091.25;5059468;28;45615;-59
2021/10/24 00:18:03;;;;;;;;;38.00;34.25;;;;;9.80;72.28;102092.13;5059326;28;46771;-60
2021/10/24 00:20:28;;;;;;;;;33.00;31.50;;;;;9.81;72.52;102088.66;5059524;28;45259;-61
2021/10/24 00:22:53;;;;;;;;;32.50;27.25;;;;;9.80;72.67;102095.56;5059618;28;45557;-59
2021/10/24 00:25:19;;;;;;;;;32.75;29.50;;;;;9.76;72.50;102094.72;5060736;28;45524;-59
2021/10/24 00:27:44;;;;;;;;;32.50;25.25;;;;;9.76;72.38;102099.06;5059865;28;46166;-60
2021/10/24 00:30:10;;;;;;;;;28.50;22.75;;;;;9.74;72.72;102085.22;5060725;28;45559;-59
2021/10/24 00:32:36;;;;;;;;;32.50;26.50;;;;;9.74;72.58;102095.59;5061787;28;45313;-59
2021/10/24 00:35:01;;;;;;;;;31.25;24.50;;;;;9.73;72.67;102086.09;5062157;28;45346;-59
2021/10/24 00:37:26;;;;;;;;;31.50;23.75;;;;;9.72;72.34;102087.81;5060477;28;45381;-59
2021/10/24 00:39:52;;;;;;;;;27.50;23.50;;;;;9.68;72.74;102086.09;5060435;28;45348;-59
2021/10/24 00:42:17;;;;;;;;;30.00;28.75;;;;;9.66;72.59;102094.75;5059673;27;45534;-59
2021/10/24 00:44:43;;;;;;;;;35.50;28.75;;;;;9.62;72.76;102085.25;5059115;28;45439;-59
2021/10/24 00:47:09;;;;;;;;;30.75;29.25;;;;;9.58;72.98;102076.59;5059117;28;46917;-59
2021/10/24 00:49:35;;;;;;;;;34.00;29.75;;;;;9.55;72.84;102080.94;5059000;28;45373;-59
2021/10/24 00:52:01;;;;;;;;;31.00;26.75;;;;;9.52;73.08;102075.75;5059015;28;45485;-59
2021/10/24 00:54:28;;;;;;;;;30.75;25.75;;;;;9.51;73.24;102079.22;5059923;28;45349;-59
2021/10/24 00:56:55;;;;;;;;;33.75;24.75;;;;;9.50;73.40;102085.25;5061382;28;47007;-58
2021/10/24 00:59:22;;;;;;;;;32.25;24.50;;;;;9.47;73.63;102083.53;5059790;28;45401;-60
2021/10/24 01:01:47;;;;;;;;;33.00;31.00;;;;;9.42;73.49;102074.91;5061331;28;45388;-59
2021/10/24 01:04:13;;;;;;;;;32.25;26.75;;;;;9.42;73.50;102075.78;5061340;28;45382;-59
2021/10/24 01:06:40;;;;;;;;;33.00;27.25;;;;;9.39;73.46;102065.38;5060775;28;46225;-58
2021/10/24 01:09:13;;;;;;;;;29.75;24.25;;;;;9.39;73.67;102075.75;5059912;28;45247;-59
2021/10/24 01:11:40;;;;;;;;;28.50;26.25;;;;;9.37;73.41;102071.44;5060880;28;45356;-58
2021/10/24 01:14:06;;;;;;;;;25.00;21.00;;;;;9.33;73.13;102070.56;5061098;28;45256;-58
2021/10/24 01:16:36;;;;;;;;;26.00;22.00;;;;;9.32;73.77;102068.84;5060930;28;45246;-58
2021/10/24 01:19:03;;;;;;;;;24.25;23.00;;;;;9.29;73.72;102060.22;5060863;28;45406;-58
2021/10/24 01:21:29;;;;;;;;;28.50;23.75;;;;;9.28;73.37;102066.28;5061166;28;45353;-58
2021/10/24 01:23:54;;;;;;;;;24.25;23.00;;;;;9.26;73.93;102065.41;5060290;28;45412;-57
2021/10/24 01:26:20;;;;;;;;;28.75;24.00;;;;;9.24;73.62;102062.81;5060968;28;46200;-57
2021/10/24 01:28:46;;;;;;;;;21.25;19.25;;;;;9.24;73.89;102064.56;5060675;28;45180;-57
2021/10/24 01:31:11;;;;;;;;;25.25;22.75;;;;;9.23;74.06;102053.31;5060681;28;45331;-57
2021/10/24 01:33:37;;;;;;;;;26.25;22.25;;;;;9.23;73.48;102052.44;5061826;28;45511;-57
2021/10/24 01:36:05;;;;;;;;;28.25;27.25;;;;;9.21;74.28;102044.66;5059537;28;45249;-57
2021/10/24 01:38:31;;;;;;;;;28.75;22.00;;;;;9.18;74.08;102044.66;5060644;28;45337;-57
2021/10/24 01:40:58;;;;;;;;;30.75;20.25;;;;;9.19;74.34;102040.31;5061049;28;45372;-57
2021/10/24 01:43:25;;;;;;;;;24.50;19.75;;;;;9.16;73.97;102030.81;5060320;28;45551;-57
2021/10/24 01:45:51;;;;;;;;;23.25;18.00;;;;;9.14;74.19;102033.41;5060578;28;45260;-57
2021/10/24 01:48:17;;;;;;;;;26.00;21.00;;;;;9.13;73.61;102030.81;5060214;28;45280;-57
2021/10/24 01:50:43;;;;;;;;;26.25;19.25;;;;;9.11;74.40;102032.56;5061739;28;45247;-57
2021/10/24 01:53:10;;;;;;;;;25.00;17.50;;;;;9.10;74.15;102031.69;5060202;28;45211;-57
2021/10/24 01:55:36;;;;;;;;;27.25;19.25;;;;;9.10;74.18;102020.47;5060366;28;46328;-57
2021/10/24 01:58:03;;;;;;;;;24.25;22.25;;;;;9.08;73.47;102009.22;5060058;28;45354;-58
2021/10/24 02:00:29;;;;;;;;;28.00;22.75;;;;;9.06;74.48;102017.00;5060437;28;45403;-58
2021/10/24 02:02:54;;;;;;;;;19.00;19.00;;;;;9.04;74.27;102003.19;5060520;28;45218;-58
2021/10/24 02:05:20;;;;;;;;;22.00;19.75;;;;;9.04;74.65;102007.50;5060049;28;45261;-57
2021/10/24 02:07:45;;;;;;;;;23.00;22.00;;;;;9.03;74.00;102003.19;5060121;28;45156;-57
2021/10/24 02:10:15;;;;;;;;;24.75;20.50;;;;;8.95;74.23;101984.16;5060614;28;45172;-57
2021/10/24 02:12:41;;;;;;;;;27.50;22.00;;;;;9.00;74.19;101995.38;5060036;28;45450;-57
2021/10/24 02:15:09;;;;;;;;;24.75;23.50;;;;;8.96;74.82;101991.06;5060022;28;45363;-57
2021/10/24 02:17:35;;;;;;;;;25.00;21.25;;;;;8.94;74.31;101992.81;5059972;28;45901;-57
2021/10/24 02:20:01;;;;;;;;;28.50;25.50;;;;;8.90;74.50;101991.94;5060171;28;45437;-57
2021/10/24 02:22:27;;;;;;;;;30.75;26.25;;;;;8.87;75.06;101984.19;5059575;28;45243;-57
2021/10/24 02:24:52;;;;;;;;;24.00;23.00;;;;;8.84;74.94;101977.28;5059862;28;46853;-56
2021/10/24 02:27:18;;;;;;;;;30.50;26.25;;;;;8.81;75.11;101974.69;5059990;28;45288;-57
2021/10/24 02:29:45;;;;;;;;;27.00;25.50;;;;;8.81;74.89;101974.69;5060112;28;45232;-58
2021/10/24 02:32:11;;;;;;;;;26.00;22.75;;;;;8.79;75.16;101976.38;5059654;28;45489;-58
2021/10/24 02:34:36;;;;;;;;;25.50;22.75;;;;;8.79;74.64;101970.34;5059888;28;45268;-58
2021/10/24 02:37:02;;;;;;;;;26.00;24.25;;;;;8.75;74.76;101969.47;5060445;28;45440;-58
2021/10/24 02:39:28;;;;;;;;;29.25;22.00;;;;;8.74;75.05;101967.75;5060027;28;45479;-58
2021/10/24 02:41:53;;;;;;;;;28.25;26.00;;;;;8.74;75.55;101966.91;5059632;28;45257;-57
2021/10/24 02:44:19;;;;;;;;;27.25;25.00;;;;;8.70;75.03;101958.25;5059802;28;46237;-57
2021/10/24 02:46:44;;;;;;;;;30.75;26.25;;;;;8.68;75.08;101962.59;5059300;28;45232;-57
2021/10/24 02:49:10;;;;;;;;;24.75;20.75;;;;;8.66;74.93;101968.63;5060726;28;45302;-57
2021/10/24 02:51:35;;;;;;;;;22.25;21.25;;;;;8.63;75.34;101963.47;5059142;28;45523;-58
2021/10/24 02:54:00;;;;;;;;;25.50;21.75;;;;;8.60;75.34;101959.09;5059652;28;45235;-57
2021/10/24 02:56:26;;;;;;;;;28.50;23.25;;;;;8.57;75.69;101953.94;5059530;28;45334;-57
2021/10/24 02:58:51;;;;;;;;;28.75;23.75;;;;;8.52;76.02;101946.16;5059709;28;45472;-58
2021/10/24 03:01:16;;;;;;;;;28.00;23.25;;;;;8.49;76.12;101941.00;5057746;28;46461;-58
2021/10/24 03:03:42;;;;;;;;;23.25;21.25;;;;;8.45;76.52;101946.19;5059383;28;45414;-58
2021/10/24 03:06:08;;;;;;;;;28.75;25.25;;;;;8.43;76.06;101946.19;5060523;28;45467;-56
2021/10/24 03:08:33;;;;;;;;;31.25;23.75;;;;;8.43;76.28;101945.31;5059656;28;45219;-58
2021/10/24 03:10:59;;;;;;;;;33.25;24.50;;;;;8.43;76.24;101940.13;5059375;28;45278;-58
2021/10/24 03:13:24;;;;;;;;;27.75;24.00;;;;;8.42;75.94;101949.63;5059409;28;45386;-58
2021/10/24 03:15:50;;;;;;;;;29.50;23.25;;;;;8.39;76.53;101948.75;5059115;28;45433;-58
2021/10/24 03:18:16;;;;;;;;;21.25;20.00;;;;;8.39;76.39;101948.75;5059392;28;45391;-58
2021/10/24 03:20:41;;;;;;;;;31.00;22.00;;;;;8.36;76.41;101946.16;5059066;28;45350;-58
2021/10/24 03:23:07;;;;;;;;;24.25;21.75;;;;;8.36;77.00;101946.16;5058786;28;46130;-59
2021/10/24 03:25:33;;;;;;;;;29.75;22.00;;;;;8.35;76.66;101939.25;5059223;28;45480;-58
2021/10/24 03:27:58;;;;;;;;;25.25;22.25;;;;;8.33;76.62;101949.56;5059446;28;45301;-58
2021/10/24 03:30:24;;;;;;;;;25.25;22.75;;;;;8.32;76.25;101939.22;5058964;28;45420;-58
2021/10/24 03:32:49;;;;;;;;;27.25;26.50;;;;;8.31;76.51;101937.50;5059472;28;46154;-58
2021/10/24 03:35:16;;;;;;;;;26.75;25.00;;;;;8.26;76.40;101931.44;5058501;28;45152;-58
2021/10/24 03:37:41;;;;;;;;;32.75;29.50;;;;;8.28;76.51;101934.91;5058573;28;45656;-58
2021/10/24 03:40:08;;;;;;;;;31.50;25.50;;;;;8.26;76.28;101944.41;5057483;28;45560;-59
2021/10/24 03:42:33;;;;;;;;;30.25;30.25;;;;;8.22;76.49;101939.22;5058309;28;45214;-59
2021/10/24 03:44:58;;;;;;;;;31.00;24.00;;;;;8.21;77.01;101942.66;5057578;28;45418;-59
2021/10/24 03:47:24;;;;;;;;;33.00;25.00;;;;;8.19;77.22;101944.38;5059056;28;45428;-59
2021/10/24 03:49:49;;;;;;;;;33.25;27.00;;;;;8.17;76.97;101950.41;5058793;28;45514;-59
2021/10/24 03:52:14;;;;;;;;;26.50;23.25;;;;;8.16;76.88;101954.72;5058511;28;46227;-59
2021/10/24 03:54:40;;;;;;;;;24.25;22.50;;;;;8.15;77.19;101954.72;5057661;28;45369;-59
2021/10/24 03:57:05;;;;;;;;;31.00;26.25;;;;;8.12;77.00;101957.31;5058601;28;45450;-59
2021/10/24 03:59:31;;;;;;;;;29.25;21.25;;;;;8.10;76.59;101959.91;5058957;28;45582;-59
2021/10/24 04:01:56;;;;;;;;;27.75;25.00;;;;;8.10;77.08;101964.22;5060327;28;46271;-59
2021/10/24 04:04:22;;;;;;;;;29.00;24.25;;;;;8.08;77.14;101960.75;5060809;28;45444;-59
2021/10/24 04:06:47;;;;;;;;;30.50;25.50;;;;;8.06;77.46;101973.69;5060805;28;45547;-59
2021/10/24 04:09:12;;;;;;;;;29.50;25.00;;;;;8.02;77.36;101971.97;5061857;28;45442;-58
2021/10/24 04:11:38;;;;;;;;;30.00;24.25;;;;;7.96;77.45;101973.66;5061879;28;45317;-58
2021/10/24 04:14:04;;;;;;;;;25.25;24.25;;;;;7.96;77.67;101976.25;5061999;28;45329;-58
2021/10/24 04:16:29;;;;;;;;;27.50;24.50;;;;;7.93;77.57;101969.34;5061812;28;45455;-59
2021/10/24 04:18:54;;;;;;;;;28.25;24.75;;;;;7.91;77.65;101977.09;5062116;28;45226;-58
2021/10/24 04:21:20;;;;;;;;;27.75;24.00;;;;;7.91;78.18;101984.00;5060930;28;46072;-60
2021/10/24 04:23:45;;;;;;;;;28.75;22.00;;;;;7.88;77.95;101974.50;5061042;28;45412;-61
2021/10/24 04:26:11;;;;;;;;;27.50;23.50;;;;;7.87;78.21;101979.69;5061647;28;45225;-59
2021/10/24 04:28:36;;;;;;;;;29.00;21.25;;;;;7.85;78.70;101973.63;5060877;28;45493;-59
2021/10/24 04:31:01;;;;;;;;;34.50;21.00;;;;;7.83;78.58;101980.53;5061051;28;45265;-59
2021/10/24 04:33:27;;;;;;;;;23.50;21.25;;;;;7.82;78.30;101973.63;5061618;28;45366;-59
2021/10/24 04:35:52;;;;;;;;;25.00;22.00;;;;;7.77;77.85;101968.41;5061552;28;45283;-59
2021/10/24 04:38:18;;;;;;;;;32.50;26.75;;;;;7.74;78.40;101970.13;5061794;28;45149;-59
2021/10/24 04:40:43;;;;;;;;;24.50;23.75;;;;;7.72;78.38;101966.69;5061264;28;46085;-59
2021/10/24 04:43:14;;;;;;;;;36.50;29.75;;;;;7.71;78.72;101967.53;5061336;28;45358;-59
2021/10/24 04:45:39;;;;;;;;;24.25;23.00;;;;;7.69;79.01;101961.50;5061808;28;45334;-59
2021/10/24 04:48:05;;;;;;;;;29.75;24.00;;;;;7.67;79.29;101958.91;5061303;28;45341;-59
2021/10/24 04:50:30;;;;;;;;;19.75;19.25;;;;;7.67;79.46;101958.03;5061375;28;46167;-59
2021/10/24 04:52:56;;;;;;;;;23.75;20.75;;;;;7.68;79.72;101963.22;5061250;28;45201;-59
2021/10/24 04:55:21;;;;;;;;;21.75;21.00;;;;;7.68;78.90;101952.00;5061597;28;45231;-59
2021/10/24 04:57:46;;;;;;;;;22.00;18.25;;;;;7.69;79.19;101953.72;5061303;28;45215;-59
2021/10/24 05:00:12;;;;;;;;;25.00;20.25;;;;;7.67;79.08;101958.03;5061565;28;45233;-59
2021/10/24 05:02:39;;;;;;;;;23.25;20.25;;;;;7.66;79.45;101957.19;5060983;28;45283;-59
2021/10/24 05:05:05;;;;;;;;;16.50;15.50;;;;;7.67;79.10;101955.44;5061080;28;45294;-58
2021/10/24 05:07:30;;;;;;;;;22.50;18.00;;;;;7.65;79.29;101950.28;5061360;28;45340;-58
2021/10/24 05:09:56;;;;;;;;;30.00;20.75;;;;;7.63;79.38;101952.84;5059589;28;45401;-58
2021/10/24 05:12:21;;;;;;;;;25.00;20.50;;;;;7.65;79.35;101950.28;5061101;28;45290;-57
2021/10/24 05:14:47;;;;;;;;;29.50;22.75;;;;;7.64;79.02;101958.91;5060984;28;45340;-57
2021/10/24 05:17:12;;;;;;;;;21.75;19.75;;;;;7.64;79.19;101948.53;5060900;28;45626;-57
2021/10/24 05:19:37;;;;;;;;;22.50;18.25;;;;;7.63;78.88;101950.28;5060759;28;46106;-58
2021/10/24 05:22:03;;;;;;;;;21.50;19.75;;;;;7.60;78.97;101947.63;5060626;28;45668;-57
2021/10/24 05:24:28;;;;;;;;;25.75;21.50;;;;;7.59;78.93;101945.06;5062726;28;45480;-58
2021/10/24 05:26:55;;;;;;;;;17.75;16.75;;;;;7.53;78.84;101932.97;5061184;28;45362;-58
2021/10/24 05:29:20;;;;;;;;;21.00;18.00;;;;;7.52;79.17;101938.13;5059070;28;46464;-58
2021/10/24 05:31:45;;;;;;;;;24.75;21.50;;;;;7.51;79.20;101939.84;5060462;28;45242;-58
2021/10/24 05:34:11;;;;;;;;;25.00;20.25;;;;;7.48;79.05;101938.97;5060761;28;45418;-57
2021/10/24 05:36:36;;;;;;;;;21.00;19.75;;;;;7.45;78.96;101936.38;5060455;28;45226;-58
2021/10/24 05:39:02;;;;;;;;;26.00;22.50;;;;;7.41;79.48;101932.94;5060574;28;45215;-58
2021/10/24 05:41:27;;;;;;;;;31.75;21.25;;;;;7.42;79.44;101936.38;5060616;28;45220;-58
2021/10/24 05:43:54;;;;;;;;;20.75;18.50;;;;;7.41;79.45;101932.03;5060699;28;45284;-58
2021/10/24 05:46:20;;;;;;;;;18.50;18.50;;;;;7.39;79.36;101936.34;5061915;28;45429;-58
2021/10/24 05:48:46;;;;;;;;;22.75;19.50;;;;;7.39;80.33;101936.34;5060558;28;45353;-58
2021/10/24 05:51:11;;;;;;;;;17.50;15.75;;;;;7.36;80.62;101931.16;5060107;28;45344;-59
2021/10/24 05:53:37;;;;;;;;;23.75;15.75;;;;;7.32;80.73;101931.16;5060699;28;45295;-58
2021/10/24 05:56:03;;;;;;;;;25.00;15.25;;;;;7.28;80.77;101919.06;5060442;28;45457;-57
2021/10/24 05:58:29;;;;;;;;;19.50;16.25;;;;;7.27;80.51;101924.22;5060415;28;47383;-57
2021/10/24 06:00:54;;;;;;;;;28.25;19.50;;;;;7.26;80.30;101923.38;5059936;28;45350;-58
2021/10/24 06:03:19;;;;;;;;;21.00;19.75;;;;;7.26;80.65;101925.09;5059980;28;45249;-57
2021/10/24 06:05:45;;;;;;;;;24.50;19.00;;;;;7.24;80.26;101925.09;5059702;28;45246;-58
2021/10/24 06:08:20;;;;;;;;;20.50;18.00;;;;;7.23;80.50;101925.94;5059437;28;46078;-58
2021/10/24 06:10:46;;;;;;;;;20.25;17.75;;;;;7.25;80.09;101929.41;5057645;28;45437;-58
2021/10/24 06:13:11;;;;;;;;;19.00;18.75;;;;;7.26;80.26;101925.94;5059626;28;45430;-58
2021/10/24 06:15:39;;;;;;;;;23.50;19.00;;;;;7.26;80.20;101925.09;5059388;28;45366;-59
2021/10/24 06:18:05;;;;;;;;;22.00;18.75;;;;;7.27;80.26;101926.81;5059066;28;47148;-58
2021/10/24 06:20:31;;;;;;;;;21.00;19.50;;;;;7.28;80.42;101925.97;5059261;28;45862;-58
2021/10/24 06:22:56;;;;;;;;;23.00;17.00;;;;;7.26;80.54;101919.91;5058434;28;45312;-58
2021/10/24 06:25:22;;;;;;;;;23.75;20.25;;;;;7.26;80.13;101915.63;5059311;28;45263;-57
2021/10/24 06:27:47;;;;;;;;;25.25;21.25;;;;;7.27;80.13;101917.34;5058892;28;45286;-58
2021/10/24 06:30:14;;;;;;;;;22.50;19.50;;;;;7.29;80.39;101915.63;5059125;28;45411;-60
2021/10/24 06:32:40;;;;;;;;;20.75;18.50;;;;;7.28;81.08;101916.47;5057944;28;45292;-60
2021/10/24 06:35:06;;;;;;;;;19.50;18.00;;;;;7.27;80.16;101907.00;5058394;28;45526;-60
2021/10/24 06:37:43;;;;;;;;;22.50;16.25;;;;;7.26;80.41;101904.41;5058606;28;47541;-60
2021/10/24 06:40:10;;;;;;;;;22.50;18.50;;;;;7.23;80.47;101892.34;5059624;28;45971;-59
2021/10/24 06:42:36;;;;;;;;;26.75;21.00;;;;;7.28;80.57;101913.03;5059858;28;45361;-58
2021/10/24 06:45:04;;;;;;;;;25.50;19.00;;;;;7.30;80.32;101906.16;5059698;28;45341;-58
2021/10/24 06:47:29;;;;;;;;;20.25;19.00;;;;;7.33;80.33;101912.19;5059545;28;45368;-64
2021/10/24 06:49:55;;;;;;;;;22.50;20.50;;;;;7.37;80.31;101910.47;5059442;28;45407;-59
2021/10/24 06:52:20;;;;;;;;;23.75;20.25;;;;;7.41;80.26;101911.34;5059716;28;45270;-58
2021/10/24 06:54:46;;;;;;;;;20.50;19.25;;;;;7.46;79.67;101917.44;5059504;28;45390;-59
2021/10/24 06:57:11;;;;;;;;;25.00;21.50;;;;;7.50;79.75;101908.81;5059711;28;45255;-59
2021/10/24 06:59:42;;;;;;;;;18.50;18.25;;;;;7.53;79.42;101903.66;5059412;28;45156;-59
2021/10/24 07:02:07;;;;;;;;;23.75;20.00;;;;;7.56;79.66;101904.53;5059318;28;45358;-58
2021/10/24 07:04:32;;;;;;;;;26.25;20.25;;;;;7.60;79.73;101906.25;5059158;28;45432;-57
2021/10/24 07:06:58;;;;;;;;;21.25;18.00;;;;;7.61;79.55;101908.00;5059510;28;45288;-61
2021/10/24 07:09:23;;;;;;;;;21.00;20.25;;;;;7.67;79.82;101906.28;5059259;28;45365;-62
2021/10/24 07:11:48;;;;;;;;;32.00;20.75;;;;;7.73;79.47;101903.72;5059569;28;45290;-60
2021/10/24 07:14:13;;;;;;;;;25.25;19.00;;;;;7.76;79.50;101896.81;5060673;28;45680;-62
2021/10/24 07:16:39;;;;;;;;;19.50;19.00;;;;;7.82;79.19;101890.81;5059265;28;45306;-59
2021/10/24 07:19:04;;;;;;;;;23.50;20.50;;;;;7.88;79.49;101898.59;5059361;28;45466;-58
2021/10/24 07:21:29;;;;;;;;;23.00;18.25;;;;;7.94;79.14;101902.03;5059592;28;45372;-59
2021/10/24 07:23:55;;;;;;;;;22.25;16.75;;;;;8.01;78.87;101902.03;5058758;28;45395;-59
2021/10/24 07:26:20;;;;;;;;;18.75;16.00;;;;;8.05;78.69;101912.44;5058742;28;46191;-61
2021/10/24 07:28:46;;;;;;;;;22.00;19.50;;;;;8.09;78.78;101905.53;5058683;28;45149;-61
2021/10/24 07:31:11;;;;;;;;;17.25;15.50;;;;;8.16;78.72;101915.88;5058497;28;45302;-59
2021/10/24 07:33:37;;;;;;;;;23.50;21.25;;;;;8.23;78.92;101907.28;5058886;28;45225;-59
2021/10/24 07:36:02;;;;;;;;;21.00;17.00;;;;;8.35;78.64;101903.84;5061840;28;45227;-61
2021/10/24 07:38:28;;;;;;;;;19.50;16.50;;;;;8.47;78.28;101903.00;5062776;28;45523;-58
2021/10/24 07:40:53;;;;;;;;;20.50;17.75;;;;;8.57;78.21;101902.13;5063086;28;45272;-57
2021/10/24 07:43:21;;;;;;;;;15.50;15.25;;;;;8.66;78.15;101898.66;5062369;28;45544;-58
2021/10/24 07:45:48;;;;;;;;;11.25;8.00;;;;;8.72;77.34;101886.56;5062106;28;46578;-63
2021/10/24 07:48:14;;;;;;;;;22.25;16.75;;;;;8.81;77.28;101883.09;5062453;28;45672;-58
2021/10/24 07:50:40;;;;;;;;;20.75;15.75;;;;;8.84;77.04;101878.78;5062333;28;45480;-64
2021/10/24 07:53:05;;;;;;;;;18.50;16.75;;;;;8.95;76.99;101883.06;5061954;28;45422;-58
2021/10/24 07:55:31;;;;;;;;;22.00;16.75;;;;;9.05;76.72;101877.00;5062222;28;46362;-67
2021/10/24 07:57:57;;;;;;;;;18.00;17.00;;;;;9.17;76.66;101881.25;5063459;28;45234;-62
2021/10/24 08:00:22;;;;;;;;;19.50;16.00;;;;;9.26;76.24;101871.72;5062303;28;45335;-56
2021/10/24 08:02:48;;;;;;;;;15.50;14.00;;;;;9.33;75.96;101868.22;5061467;28;45595;-57
2021/10/24 08:05:15;;;;;;;;;16.75;14.75;;;;;9.35;75.56;101870.81;5061765;28;46446;-58
2021/10/24 08:07:41;;;;;;;;;14.25;12.25;;;;;9.40;75.24;101882.03;5062168;28;45337;-58
2021/10/24 08:10:07;;;;;;;;;18.00;11.50;;;;;9.44;75.21;101878.56;5062207;28;45460;-58
2021/10/24 08:12:34;;;;;;;;;15.00;12.00;;;;;9.53;74.86;101880.25;5061888;28;45311;-59
2021/10/24 08:14:59;;;;;;;;;17.50;15.25;;;;;9.58;74.50;101879.34;5061836;28;45397;-60
2021/10/24 08:17:25;;;;;;;;;13.00;12.50;;;;;9.58;73.54;101879.34;5061569;28;45260;-59
2021/10/24 08:19:50;;;;;;;;;14.00;12.50;;;;;9.59;74.14;101880.22;5062240;28;45228;-59
2021/10/24 08:22:18;;;;;;;;;11.50;11.50;;;;;9.70;73.49;101881.03;5061487;28;45524;-59
2021/10/24 08:24:44;;;;;;;;;14.50;12.75;;;;;9.76;73.92;101883.59;5061867;28;46102;-60
2021/10/24 08:27:10;;;;;;;;;11.50;9.50;;;;;9.85;73.08;101880.94;5061852;28;45742;-61
2021/10/24 08:29:35;;;;;;;;;14.25;12.75;;;;;9.88;73.06;101882.66;5062077;28;45730;-58
2021/10/24 08:32:04;;;;;;;;;14.50;14.00;;;;;9.94;73.20;101882.59;5061379;28;45432;-57
2021/10/24 08:34:31;;;;;;;;;21.75;15.50;;;;;10.03;72.47;101885.16;5061590;28;46093;-57
2021/10/24 08:36:57;;;;;;;;;17.50;13.00;;;;;10.07;72.09;101890.31;5061582;28;45961;-58
2021/10/24 08:39:22;;;;;;;;;16.75;13.75;;;;;10.11;71.68;101887.69;5061712;28;45326;-59
2021/10/24 08:41:50;;;;;;;;;12.50;11.00;;;;;10.16;71.82;101888.50;5061637;28;45351;-59
2021/10/24 08:44:16;;;;;;;;;20.25;14.00;;;;;10.24;71.71;101887.63;5061563;28;45483;-59
2021/10/24 08:46:41;;;;;;;;;13.00;12.75;;;;;10.31;71.87;101888.44;5060449;28;45368;-65
2021/10/24 08:49:09;;;;;;;;;16.25;10.50;;;;;10.31;70.99;101881.50;5061161;28;45252;-59
2021/10/24 08:51:34;;;;;;;;;14.00;13.75;;;;;10.32;71.10;101883.22;5060980;28;45441;-61
2021/10/24 08:54:00;;;;;;;;;18.00;15.00;;;;;10.34;71.08;101878.88;5061372;28;46018;-58
2021/10/24 08:56:29;;;;;;;;;22.75;15.25;;;;;10.45;71.18;101883.13;5060634;28;45708;-56
2021/10/24 08:58:55;;;;;;;;;17.25;15.25;;;;;10.55;71.01;101872.63;5060862;28;45727;-57
2021/10/24 09:01:21;;;;;;;;;15.75;10.25;;;;;10.62;70.51;101871.72;5060636;28;45402;-57
2021/10/24 09:04:03;;;;;;;;;21.00;15.25;;;;;10.73;70.04;101873.34;5061236;28;46003;-56
2021/10/24 09:07:02;;;;;;;;;26.75;20.00;;;;;10.87;69.86;101868.88;5061104;28;45434;-57
2021/10/24 09:09:36;;;;;;;;;18.75;17.50;;;;;10.95;70.12;101851.41;5052157;28;45473;-57
2021/10/24 09:12:07;;;;;;;;;20.00;15.75;;;;;11.04;69.32;101861.75;5061257;28;45547;-57
2021/10/24 09:14:46;;;;;;;;;16.25;15.25;;;;;11.09;68.99;101848.66;5061315;28;46175;-57
2021/10/24 09:17:26;;;;;;;;;15.75;13.25;;;;;11.13;69.25;101848.59;5061052;28;45347;-56
2021/10/24 09:20:05;;;;;;;;;21.25;13.75;;;;;11.20;68.90;101845.03;5075474;28;45460;-56
2021/10/24 09:22:33;;;;;;;;;16.25;15.50;;;;;11.25;68.24;101840.66;5060351;28;45508;-57
2021/10/24 09:25:18;;;;;;;;;55.50;43.00;;;;;11.37;68.11;101843.97;5060534;28;46539;-57
2021/10/24 09:27:46;;;;;;;;;19.00;15.75;;;;;11.49;68.34;101833.41;5060626;28;45872;-57
2021/10/24 09:30:21;;;;;;;;;19.75;16.50;;;;;11.59;67.89;101837.59;5061788;28;45468;-64
2021/10/24 09:32:58;;;;;;;;;17.00;13.75;;;;;11.70;67.88;101824.44;5049579;28;45398;-54
2021/10/24 09:35:29;;;;;;;;;15.00;13.50;;;;;11.82;67.37;101829.50;5060370;28;46239;-52
2021/10/24 09:37:58;;;;;;;;;15.50;12.50;;;;;11.93;66.89;101824.13;5060838;28;45396;-54
2021/10/24 09:40:27;;;;;;;;;18.25;15.25;;;;;12.62;68.63;101832.50;5060723;28;45256;-53
2021/10/24 09:43:22;;;;;;;;;15.25;14.00;;;;;14.11;62.26;101828.41;5060828;28;45378;-54
2021/10/24 09:45:57;;;;;;;;;17.75;15.75;;;;;14.08;60.01;101828.50;5048488;28;47399;-63
2021/10/24 09:48:27;;;;;;;;;18.25;17.75;;;;;13.81;61.21;101832.59;5060444;28;45760;-54
2021/10/24 09:50:55;;;;;;;;;19.25;15.50;;;;;13.64;61.06;101838.25;5060489;28;45224;-54
2021/10/24 09:53:28;;;;;;;;;13.50;12.00;;;;;13.44;61.37;101834.38;5060089;28;45450;-55
2021/10/24 09:55:54;;;;;;;;;15.25;15.00;;;;;13.60;61.57;101838.31;5059226;28;47385;-56
2021/10/24 09:58:23;;;;;;;;;17.33;14.33;;;;;14.23;61.85;101838.59;5059644;28;45245;-55
2021/10/24 10:00:49;;;;;;;;;17.75;16.25;;;;;14.79;60.30;101838.88;5060224;28;45467;-55
2021/10/24 10:03:15;;;;;;;;;15.75;14.75;;;;;14.94;59.56;101834.97;5060216;28;45517;-57
2021/10/24 10:05:40;;;;;;;;;17.00;16.00;;;;;15.10;60.17;101830.16;5060151;28;45324;-56
2021/10/24 10:08:17;;;;;;;;;22.25;17.00;;;;;16.60;60.36;101829.72;5060255;28;45251;-56
2021/10/24 10:10:48;;;;;;;;;16.50;15.00;;;;;17.54;55.16;101827.16;5060518;28;45263;-56
2021/10/24 10:13:18;;;;;;;;;15.00;14.00;;;;;17.10;55.28;101828.84;5059281;28;45295;-55
2021/10/24 10:15:47;;;;;;;;;18.25;15.75;;;;;16.55;55.37;101825.56;5059817;28;46128;-56
2021/10/24 10:18:13;;;;;;;;;18.25;16.25;;;;;16.38;56.28;101829.59;5060578;28;45315;-58
2021/10/24 10:20:47;;;;;;;;;13.00;11.50;;;;;16.80;56.11;101836.91;5058894;28;45528;-57
2021/10/24 10:23:14;;;;;;;;;24.00;15.75;;;;;17.08;53.94;101828.06;5058557;28;45299;-55
2021/10/24 10:25:42;;;;;;;;;20.50;16.00;;;;;16.84;53.64;101842.94;5060082;28;46382;-56
2021/10/24 10:28:11;;;;;;;;;21.75;17.25;;;;;17.05;55.16;101841.31;5058941;28;45587;-56
2021/10/24 10:30:43;;;;;;;;;18.25;17.50;;;;;19.41;54.14;101834.03;5061198;28;45289;-57
2021/10/24 10:33:33;;;;;;;;;17.75;15.50;;;;;20.42;50.35;101834.44;5060192;28;45455;-55
2021/10/24 10:36:00;;;;;;;;;17.75;16.00;;;;;20.02;45.24;101834.66;5059686;28;45501;-54
2021/10/24 10:38:37;;;;;;;;;18.00;15.25;;;;;19.01;48.26;101835.03;5059782;28;45706;-57
2021/10/24 10:41:04;;;;;;;;;16.00;15.00;;;;;19.85;48.67;101833.75;5059993;28;45261;-55
2021/10/24 10:43:29;;;;;;;;;18.00;15.75;;;;;19.70;48.13;101838.00;5059335;28;45230;-55
2021/10/24 10:46:01;;;;;;;;;17.00;15.50;;;;;20.47;44.68;101832.44;5059837;28;45894;-54
2021/10/24 10:48:34;;;;;;;;;13.75;13.75;;;;;19.94;45.55;101833.28;5062179;28;45647;-55
2021/10/24 10:51:21;;;;;;;;;18.00;15.00;;;;;18.98;44.91;101836.03;5060531;28;45406;-54
2021/10/24 10:53:46;;;;;;;;;19.25;15.25;;;;;18.03;46.99;101839.25;5059875;28;45457;-54
2021/10/24 10:56:11;;;;;;;;;14.50;14.25;;;;;18.83;48.67;101842.00;5058701;28;46252;-54
2021/10/24 10:58:51;;;;;;;;;16.00;16.00;;;;;20.89;47.31;101832.81;5059697;28;45262;-53
2021/10/24 11:01:39;;;;;;;;;17.50;16.00;;;;;21.13;44.78;101837.72;5061264;28;45348;-53
2021/10/24 11:04:07;;;;;;;;;16.00;16.00;;;;;20.95;43.55;101839.56;5058451;28;45478;-53
2021/10/24 11:06:38;;;;;;;;;16.50;14.75;;;;;22.06;42.91;101833.41;5059308;28;46393;-55
2021/10/24 11:09:09;;;;;;;;;17.75;15.75;;;;;21.10;40.12;101835.25;5059965;28;45313;-54
2021/10/24 11:14:15;;;;;;;;;14.50;11.25;;;;;18.74;44.55;101835.34;5063288;28;45501;-56
2021/10/24 11:16:44;;;;;;;;;18.00;16.25;;;;;19.03;45.32;101834.06;5062662;28;45260;-49